Rye Valley, Oregon
Current Conditions -  °F | °C
As of 7:53 PM on Tuesday 25 Nov 2014 (Local Time) from KBKE Reporting Station
Few Clouds Few Clouds  
Wind Chill: 36°   Ceiling: Unl
Heat Index: 41°   Visibility: 10mi
Dew Point: 37°   Wind: 7mph
Humidity: 86%   Direction: 130°SE
Pressure: 30.22"   Gusts: NA
Location:  44.4221°N, 117.451°W
Report Text: KBKE 260353Z AUTO 13006KT 10SM FEW060 05/03 A3022 RMK AO2 SLP251 T00500028 $
Loading
Personal Weather Stations






























Interactive Weather Map New forecast layout! Learn more

10-Day Weather Forecast

Advertisements
Track Severe Weather on mobile